createdAt,value
2023-03-13T00:04:51.157Z,13.79
2023-03-13T00:24:57.003Z,14.41
2023-03-13T00:45:02.756Z,15.22
2023-03-13T01:05:08.540Z,15.10
2023-03-13T01:25:14.277Z,14.93
2023-03-13T01:45:20.066Z,15.87
2023-03-13T02:05:25.791Z,13.62
2023-03-13T02:25:31.671Z,14.20
2023-03-13T02:45:37.456Z,13.89
2023-03-13T03:05:43.212Z,13.65
2023-03-13T03:25:49.067Z,20.52
2023-03-13T03:45:55.045Z,20.09
2023-03-13T04:06:00.826Z,17.44
2023-03-13T04:26:06.734Z,13.85
2023-03-13T04:46:12.557Z,16.67
2023-03-13T05:06:20.385Z,14.12
2023-03-13T05:26:25.207Z,14.25
2023-03-13T05:46:31.098Z,12.96
2023-03-13T06:06:36.871Z,11.25
2023-03-13T06:26:42.843Z,12.38
2023-03-13T06:46:48.705Z,9.26
2023-03-13T07:06:54.528Z,7.95
2023-03-13T07:27:07.262Z,6.67
2023-03-13T07:47:05.704Z,7.85
2023-03-13T08:07:11.527Z,6.21
2023-03-13T08:27:17.336Z,4.96
2023-03-13T08:47:23.073Z,5.17
2023-03-13T09:07:28.843Z,4.34
2023-03-13T09:27:34.628Z,4.26
2023-03-13T09:47:50.040Z,3.87
2023-03-13T10:07:45.806Z,3.19
2023-03-13T10:27:52.246Z,4.17
2023-03-13T10:47:58.008Z,3.55
2023-03-13T11:08:03.871Z,3.39
2023-03-13T11:28:10.061Z,3.31
2023-03-13T11:48:16.355Z,2.69
2023-03-13T12:08:22.665Z,2.60
2023-03-13T12:28:28.514Z,2.70
2023-03-13T12:48:34.791Z,2.92
2023-03-13T13:08:41.033Z,2.79
2023-03-13T13:28:46.831Z,3.09
2023-03-13T13:48:52.675Z,3.03
2023-03-13T14:08:58.531Z,2.84
2023-03-13T14:29:06.714Z,3.37
2023-03-13T14:49:10.181Z,2.95
2023-03-13T15:09:16.452Z,3.70
2023-03-13T15:29:22.215Z,3.32
2023-03-13T15:49:28.479Z,9.94
2023-03-13T16:09:34.721Z,3.19
2023-03-13T16:29:40.944Z,3.62
2023-03-13T16:49:47.746Z,3.13
2023-03-13T17:09:52.637Z,3.47
2023-03-13T17:29:58.848Z,4.88
2023-03-13T17:50:05.131Z,3.68
2023-03-13T18:10:10.907Z,4.22
2023-03-13T18:30:16.952Z,4.62
2023-03-13T18:50:25.529Z,5.68
2023-03-13T19:10:31.364Z,5.74
2023-03-13T19:30:37.608Z,5.01
2023-03-13T19:50:43.345Z,5.48
2023-03-13T20:10:49.136Z,3.66
2023-03-13T20:51:02.415Z,6.75
2023-03-13T21:11:08.154Z,4.21
2023-03-13T21:31:14.070Z,5.16
2023-03-13T21:51:19.903Z,10.80
2023-03-13T22:11:25.687Z,5.06
2023-03-13T22:31:31.923Z,3.80
2023-03-13T22:51:37.685Z,4.43
2023-03-13T23:11:43.920Z,3.47
2023-03-13T23:31:49.781Z,3.70
2023-03-13T23:51:55.582Z,3.81
